Time;durP1;ratioP1;P1;durP2;ratioP2;P2;SDS_P1;SDS_P2;PMS_P1;PMS_P2;Temp;Humidity;BMP_temperature;BMP_pressure;BME280_temperature;BME280_humidity;BME280_pressure;Samples;Min_cycle;Max_cycle;Signal;HPM_P1;HPM_P2
2023/06/15 00:00:31;;;;;;;6.78;5.90;;;;;;;20.18;100.00;97974.81;5071024;28;20259;-57
2023/06/15 00:02:57;;;;;;;7.00;6.30;;;;;;;20.06;100.00;97962.19;5070915;28;20216;-56
2023/06/15 00:05:22;;;;;;;6.65;6.00;;;;;;;20.23;100.00;97985.56;5030913;28;20265;-57
2023/06/15 00:07:48;;;;;;;6.20;5.38;;;;;;;20.22;100.00;97972.63;5030937;28;20182;-56
2023/06/15 00:10:14;;;;;;;6.10;5.50;;;;;;;20.33;100.00;97995.88;5030866;28;20656;-57
2023/06/15 00:12:39;;;;;;;7.93;5.60;;;;;;;20.32;100.00;97991.59;5030873;28;20565;-56
2023/06/15 00:15:06;;;;;;;5.75;5.32;;;;;;;20.21;100.00;97979.69;5030823;28;20190;-56
2023/06/15 00:17:31;;;;;;;5.93;5.35;;;;;;;20.27;100.00;97991.28;5030783;28;20281;-56
2023/06/15 00:19:57;;;;;;;7.20;5.10;;;;;;;20.26;100.00;97994.91;5030728;28;20190;-57
2023/06/15 00:22:26;;;;;;;6.40;5.05;;;;;;;20.34;100.00;98002.75;5030709;28;20554;-57
2023/06/15 00:24:53;;;;;;;6.72;5.65;;;;;;;20.27;100.00;98000.00;5030617;28;20193;-57
2023/06/15 00:27:18;;;;;;;6.03;5.00;;;;;;;20.17;100.00;97988.09;5030737;28;20192;-57
2023/06/15 00:29:44;;;;;;;6.45;5.15;;;;;;;19.88;100.00;97972.97;5030329;28;20209;-57
2023/06/15 00:32:09;;;;;;;6.75;5.57;;;;;;;19.96;100.00;97985.25;5030547;28;20572;-57
2023/06/15 00:34:35;;;;;;;6.68;5.45;;;;;;;20.05;100.00;97999.97;5030516;28;20573;-57
2023/06/15 00:37:00;;;;;;;6.13;5.53;;;;;;;19.99;100.00;97987.53;5078168;28;20184;-57
2023/06/15 00:39:26;;;;;;;5.88;5.25;;;;;;;20.10;100.00;98000.31;5092962;28;20215;-57
2023/06/15 00:41:52;;;;;;;6.00;5.50;;;;;;;20.17;100.00;98002.03;5092554;28;20662;-57
2023/06/15 00:44:18;;;;;;;7.93;5.68;;;;;;;20.18;100.00;97990.56;5092639;28;20174;-57
2023/06/15 00:46:44;;;;;;;8.40;5.82;;;;;;;20.13;100.00;97985.00;5092841;28;20715;-57
2023/06/15 00:49:10;;;;;;;5.32;4.93;;;;;;;20.05;100.00;97981.59;5069964;28;20310;-57
2023/06/15 00:51:39;;;;;;;5.28;4.88;;;;;;;19.99;100.00;97969.94;5070212;28;20227;-57
2023/06/15 00:54:06;;;;;;;5.68;5.10;;;;;;;20.16;100.00;97989.09;5070077;28;20732;-57
2023/06/15 00:56:31;;;;;;;4.47;4.07;;;;;;;20.20;100.00;97998.25;5070082;28;20191;-56
2023/06/15 00:58:57;;;;;;;5.75;4.68;;;;;;;20.07;100.00;97979.63;5029314;28;20185;-57
2023/06/15 01:01:24;;;;;;;5.78;5.18;;;;;;;20.10;100.00;97987.19;5030089;28;20232;-57
2023/06/15 01:03:50;;;;;;;5.70;4.85;;;;;;;20.17;100.00;98003.88;5030041;28;20189;-57
2023/06/15 01:06:18;;;;;;;8.15;5.32;;;;;;;20.06;100.00;98004.22;5030060;28;20226;-57
2023/06/15 01:08:47;;;;;;;7.38;4.93;;;;;;;19.96;100.00;97998.38;5029902;28;20220;-57
2023/06/15 01:11:14;;;;;;;6.43;5.68;;;;;;;19.84;100.00;97982.22;5029934;28;20239;-57
2023/06/15 01:13:42;;;;;;;7.13;5.43;;;;;;;19.83;100.00;97971.88;5029911;28;20194;-57
2023/06/15 01:16:14;;;;;;;6.05;5.45;;;;;;;19.90;100.00;97991.19;4990449;28;20183;-57
2023/06/15 01:18:41;;;;;;;5.75;5.15;;;;;;;20.03;100.00;97999.31;4990658;28;20688;-57
2023/06/15 01:21:08;;;;;;;5.90;5.40;;;;;;;19.85;100.00;97975.97;4990473;28;20199;-57
2023/06/15 01:24:07;;;;;;;8.48;4.85;;;;;;;20.08;100.00;97986.50;4990516;28;20237;-57
2023/06/15 01:26:34;;;;;;;5.35;4.85;;;;;;;19.92;100.00;97960.31;4971135;28;20192;-57
2023/06/15 01:28:59;;;;;;;6.65;4.82;;;;;;;19.90;100.00;97988.56;4975076;28;20216;-57
2023/06/15 01:31:26;;;;;;;7.35;4.50;;;;;;;19.85;100.00;97959.38;4994757;28;20230;-57
2023/06/15 01:33:52;;;;;;;6.28;4.80;;;;;;;20.05;100.00;97987.63;4990452;28;20187;-57
2023/06/15 01:36:18;;;;;;;5.53;4.50;;;;;;;20.01;100.00;97977.66;4990369;28;20191;-57
2023/06/15 01:38:47;;;;;;;5.47;5.05;;;;;;;19.77;100.00;97956.81;4990383;28;20187;-57
2023/06/15 01:41:16;;;;;;;7.38;4.75;;;;;;;19.82;100.00;97978.13;4990310;28;20210;-57
2023/06/15 01:43:41;;;;;;;8.18;4.55;;;;;;;19.90;100.00;97971.00;4990217;28;20237;-57
2023/06/15 01:46:08;;;;;;;9.10;4.70;;;;;;;19.77;100.00;97943.69;4993418;28;20290;-57
2023/06/15 01:48:33;;;;;;;5.03;4.53;;;;;;;19.88;100.00;97966.94;5009922;28;20678;-57
2023/06/15 01:51:00;;;;;;;4.90;4.43;;;;;;;19.91;100.00;97963.94;5009779;28;20189;-57
2023/06/15 01:53:26;;;;;;;4.78;4.25;;;;;;;19.65;100.00;97948.50;5009841;28;20606;-57
2023/06/15 01:55:51;;;;;;;8.82;4.35;;;;;;;19.78;100.00;97963.69;5009411;28;20190;-57
2023/06/15 01:58:17;;;;;;;7.75;4.63;;;;;;;19.72;100.00;97961.75;5044573;28;20195;-57
2023/06/15 02:00:44;;;;;;;5.47;4.90;;;;;;;19.75;100.00;97959.59;5049399;28;20231;-57
2023/06/15 02:03:10;;;;;;;9.85;5.22;;;;;;;19.67;100.00;97969.31;5049335;28;20665;-57
2023/06/15 02:05:39;;;;;;;6.68;4.55;;;;;;;19.62;100.00;97974.28;5049307;28;20242;-57
2023/06/15 02:08:08;;;;;;;5.95;4.70;;;;;;;19.44;100.00;97942.22;5049224;28;20664;-57
2023/06/15 02:10:34;;;;;;;4.78;4.30;;;;;;;19.53;100.00;97967.44;5050396;28;20303;-57
2023/06/15 02:13:00;;;;;;;5.55;5.05;;;;;;;19.52;100.00;97952.69;5052949;28;20367;-57
2023/06/15 02:15:26;;;;;;;4.85;4.45;;;;;;;19.32;100.00;97939.16;5053020;28;20654;-57
2023/06/15 02:17:58;;;;;;;5.40;5.00;;;;;;;19.41;100.00;97971.44;5053074;28;20331;-56
2023/06/15 02:20:24;;;;;;;5.50;4.90;;;;;;;19.24;100.00;97954.91;5013207;28;20198;-56
2023/06/15 02:22:52;;;;;;;5.30;4.90;;;;;;;19.29;100.00;97967.56;5013153;28;20187;-57
2023/06/15 02:25:18;;;;;;;4.88;4.47;;;;;;;19.19;100.00;97972.97;5013103;28;20197;-56
2023/06/15 02:27:44;;;;;;;4.97;4.38;;;;;;;19.14;100.00;97974.44;5013135;28;20571;-56
2023/06/15 02:30:11;;;;;;;5.03;4.40;;;;;;;19.11;100.00;97965.09;5017666;28;20218;-57
2023/06/15 02:32:39;;;;;;;9.85;4.90;;;;;;;19.24;100.00;97972.47;5012829;28;20195;-57
2023/06/15 02:35:09;;;;;;;5.55;4.97;;;;;;;19.10;100.00;97955.59;5012906;28;20190;-57
2023/06/15 02:37:35;;;;;;;6.68;4.68;;;;;;;19.17;100.00;97968.88;5012930;28;20190;-57
2023/06/15 02:40:01;;;;;;;6.38;4.65;;;;;;;18.89;100.00;97938.81;5012919;28;20186;-57
2023/06/15 02:42:26;;;;;;;4.50;4.20;;;;;;;19.02;100.00;97960.88;5012836;28;20187;-57
2023/06/15 02:44:51;;;;;;;6.75;5.00;;;;;;;18.99;100.00;97957.75;5012802;28;20564;-57
2023/06/15 02:47:17;;;;;;;6.43;4.20;;;;;;;19.05;100.00;97965.78;5012770;28;20193;-57
2023/06/15 02:49:42;;;;;;;4.70;4.35;;;;;;;18.93;100.00;97950.56;5012604;28;20246;-57
2023/06/15 02:52:08;;;;;;;5.05;4.63;;;;;;;19.02;100.00;97973.16;5012677;28;20179;-56
2023/06/15 02:54:36;;;;;;;5.20;4.68;;;;;;;19.07;100.00;97986.59;5012625;28;20261;-57
2023/06/15 02:57:06;;;;;;;4.60;4.20;;;;;;;19.05;100.00;97981.53;5015928;28;20240;-57
2023/06/15 02:59:33;;;;;;;4.85;3.85;;;;;;;18.95;100.00;97961.72;5032350;28;20574;-57
2023/06/15 03:02:00;;;;;;;5.53;4.30;;;;;;;18.99;100.00;97965.63;5032188;28;20240;-57
2023/06/15 03:04:27;;;;;;;5.28;4.13;;;;;;;18.92;100.00;97948.94;5029006;28;20213;-57
2023/06/15 03:06:54;;;;;;;4.32;4.00;;;;;;;19.00;100.00;97975.16;5032103;28;20194;-56
2023/06/15 03:09:20;;;;;;;5.00;4.55;;;;;;;19.02;100.00;97984.50;5031992;28;20217;-57
2023/06/15 03:11:46;;;;;;;5.85;4.15;;;;;;;19.06;100.00;97983.16;5032219;28;20174;-57
2023/06/15 03:14:12;;;;;;;4.95;4.50;;;;;;;18.99;100.00;97984.81;5032315;28;20680;-56
2023/06/15 03:16:41;;;;;;;5.03;4.53;;;;;;;18.86;100.00;97970.56;5032063;28;20182;-56
2023/06/15 03:19:07;;;;;;;4.97;4.38;;;;;;;18.92;100.00;97980.41;5031859;28;20201;-56
2023/06/15 03:21:32;;;;;;;4.43;4.03;;;;;;;18.84;100.00;97978.59;5031690;28;20184;-57
2023/06/15 03:23:58;;;;;;;4.80;4.35;;;;;;;18.93;100.00;97995.13;5031450;28;20592;-57
2023/06/15 03:26:26;;;;;;;5.38;4.82;;;;;;;18.98;100.00;97990.22;5032114;28;20177;-57
2023/06/15 03:28:53;;;;;;;8.32;4.15;;;;;;;18.79;100.00;97964.38;5031682;28;20726;-57
2023/06/15 03:31:19;;;;;;;4.68;4.28;;;;;;;18.92;100.00;97985.63;5046014;28;20242;-58
2023/06/15 03:33:45;;;;;;;4.65;3.83;;;;;;;18.88;100.00;97973.88;5051634;28;20679;-57
2023/06/15 03:36:14;;;;;;;3.97;3.67;;;;;;;18.88;100.00;97969.44;5069696;28;20192;-57
2023/06/15 03:38:43;;;;;;;4.65;4.28;;;;;;;18.92;100.00;97964.66;5073866;28;20667;-56
2023/06/15 03:41:08;;;;;;;4.35;4.05;;;;;;;18.86;100.00;97950.44;5051308;28;20227;-57
2023/06/15 03:43:37;;;;;;;8.07;4.07;;;;;;;19.15;100.00;97976.91;5051711;28;20220;-57
2023/06/15 03:46:06;;;;;;;4.60;4.20;;;;;;;19.05;100.00;97951.88;5051359;28;20227;-57
2023/06/15 03:48:32;;;;;;;4.07;3.78;;;;;;;19.15;100.00;97968.22;4991809;28;20195;-56
2023/06/15 03:50:57;;;;;;;4.60;4.20;;;;;;;19.26;100.00;97966.09;4992027;28;20186;-56
2023/06/15 03:53:24;;;;;;;4.80;4.40;;;;;;;19.08;100.00;97941.03;4992051;28;20823;-56
2023/06/15 03:55:50;;;;;;;4.35;3.88;;;;;;;19.18;100.00;97939.03;4991832;28;20222;-56
2023/06/15 03:58:16;;;;;;;5.38;4.78;;;;;;;19.26;100.00;97952.97;4991834;28;20277;-56
2023/06/15 04:00:43;;;;;;;6.45;3.75;;;;;;;19.19;100.00;97949.38;4972149;28;20194;-56
2023/06/15 04:03:09;;;;;;;4.85;4.32;;;;;;;19.42;100.00;97967.81;4972319;28;20203;-56
2023/06/15 04:05:34;;;;;;;5.70;4.32;;;;;;;19.48;100.00;97975.00;4972218;28;20195;-56
2023/06/15 04:08:01;;;;;;;5.65;4.32;;;;;;;19.56;100.00;97970.53;4972181;28;20355;-56
2023/06/15 04:10:27;;;;;;;8.98;3.83;;;;;;;19.66;100.00;97970.31;4972109;28;20216;-56
2023/06/15 04:12:52;;;;;;;6.80;4.13;;;;;;;19.79;100.00;97981.91;4987916;28;20202;-56
2023/06/15 04:15:18;;;;;;;4.97;3.97;;;;;;;19.86;100.00;97987.25;4991586;28;20184;-56
2023/06/15 04:17:43;;;;;;;12.50;4.10;;;;;;;19.94;100.00;97985.41;4991511;28;20278;-56
2023/06/15 04:20:09;;;;;;;5.93;3.85;;;;;;;19.84;100.00;97970.88;5036757;28;20659;-56
2023/06/15 04:22:35;;;;;;;4.80;3.90;;;;;;;20.10;100.00;97997.69;5010881;28;20194;-56
2023/06/15 04:25:00;;;;;;;4.95;3.83;;;;;;;20.11;100.00;97991.44;5010960;28;20753;-56
2023/06/15 04:27:27;;;;;;;6.53;3.95;;;;;;;20.22;100.00;97986.56;5010858;28;20198;-56
2023/06/15 04:29:53;;;;;;;4.43;4.00;;;;;;;20.30;100.00;97997.03;5008086;28;20309;-56
2023/06/15 04:32:19;;;;;;;4.68;3.92;;;;;;;20.27;100.00;98007.06;4991202;28;20226;-56
2023/06/15 04:34:45;;;;;;;4.10;3.80;;;;;;;20.34;100.00;98008.03;4990289;28;20274;-56
2023/06/15 04:37:13;;;;;;;3.80;3.47;;;;;;;20.33;100.00;98006.38;4991204;28;20194;-56
2023/06/15 04:39:39;;;;;;;3.92;3.45;;;;;;;20.37;100.00;98012.91;4991144;28;20250;-56
2023/06/15 04:42:04;;;;;;;3.83;3.53;;;;;;;20.38;100.00;97996.97;4991135;28;20192;-56
2023/06/15 04:44:30;;;;;;;4.35;3.95;;;;;;;20.38;100.00;97990.88;4991140;28;20180;-56
2023/06/15 04:46:55;;;;;;;5.35;3.90;;;;;;;20.61;100.00;98024.06;4991026;28;20201;-56
2023/06/15 04:49:21;;;;;;;3.83;3.47;;;;;;;20.73;100.00;98022.63;4990943;28;20294;-56
2023/06/15 04:51:50;;;;;;;4.55;4.15;;;;;;;20.89;100.00;98019.06;4990978;28;20187;-56
2023/06/15 04:54:16;;;;;;;10.82;7.45;;;;;;;21.03;100.00;98026.19;4990900;28;20219;-56
2023/06/15 04:56:41;;;;;;;18.95;9.52;;;;;;;21.17;100.00;98018.31;4990885;28;20211;-56
2023/06/15 04:59:07;;;;;;;14.10;9.80;;;;;;;21.28;100.00;98019.66;4996006;28;20590;-56
2023/06/15 05:01:32;;;;;;;15.43;10.07;;;;;;;21.27;100.00;98007.50;5030150;28;20178;-56
2023/06/15 05:03:58;;;;;;;16.25;10.07;;;;;;;21.52;100.00;98041.28;5062467;28;20185;-56
2023/06/15 05:06:24;;;;;;;15.57;10.15;;;;;;;21.64;100.00;98042.44;5072361;28;20176;-56
2023/06/15 05:08:50;;;;;;;13.45;10.32;;;;;;;21.63;100.00;98024.19;5072293;28;20196;-56
2023/06/15 05:11:15;;;;;;;18.67;10.57;;;;;;;21.72;100.00;98033.66;5072359;28;20179;-56
2023/06/15 05:13:41;;;;;;;15.93;10.15;;;;;;;21.74;100.00;98027.19;5072293;28;20539;-56
2023/06/15 05:16:06;;;;;;;14.70;9.93;;;;;;;21.80;100.00;98034.34;5072183;28;20184;-56
2023/06/15 05:18:32;;;;;;;16.92;10.80;;;;;;;21.62;100.00;98019.94;5072192;28;20536;-56
2023/06/15 05:20:57;;;;;;;16.65;11.13;;;;;;;21.66;100.00;98021.19;5071888;28;20168;-57
2023/06/15 05:23:23;;;;;;;14.63;10.88;;;;;;;21.66;100.00;98014.09;5072178;28;20229;-57
2023/06/15 05:25:48;;;;;;;20.55;11.00;;;;;;;21.89;100.00;98024.53;5072089;28;20177;-57
2023/06/15 05:28:14;;;;;;;15.05;10.27;;;;;;;22.08;100.00;98034.50;5072150;28;20260;-57
2023/06/15 05:30:40;;;;;;;20.88;10.82;;;;;;;22.17;100.00;98042.09;5081248;28;20218;-57
2023/06/15 05:33:05;;;;;;;19.15;10.52;;;;;;;22.12;100.00;98009.41;5092528;28;20219;-57
2023/06/15 05:35:31;;;;;;;14.00;9.80;;;;;;;22.33;100.00;98035.78;5092156;28;20187;-57
2023/06/15 05:37:57;;;;;;;19.92;10.57;;;;;;;22.41;100.00;98035.66;5092129;28;20211;-57
2023/06/15 05:40:22;;;;;;;16.75;10.50;;;;;;;22.58;100.00;98042.34;5092175;28;20648;-57
2023/06/15 05:42:47;;;;;;;14.07;9.63;;;;;;;22.58;100.00;98037.06;5092196;28;20200;-57
2023/06/15 05:45:13;;;;;;;17.58;9.98;;;;;;;22.68;100.00;98038.38;5092834;28;20622;-57
2023/06/15 05:47:38;;;;;;;16.52;11.02;;;;;;;22.76;100.00;98045.34;5096224;28;20182;-57
2023/06/15 05:50:04;;;;;;;14.10;10.23;;;;;;;22.83;100.00;98056.75;5096035;28;20202;-57
2023/06/15 05:52:29;;;;;;;19.13;9.93;;;;;;;22.69;100.00;98034.75;5096087;28;20180;-57
2023/06/15 05:54:55;;;;;;;18.05;9.30;;;;;;;22.90;100.00;98060.28;5096074;28;20176;-57
2023/06/15 05:57:20;;;;;;;19.23;9.55;;;;;;;22.88;100.00;98047.28;5096094;28;20555;-57
2023/06/15 05:59:46;;;;;;;15.55;9.32;;;;;;;22.88;100.00;98043.81;5095973;28;20270;-57
2023/06/15 06:02:12;;;;;;;18.20;9.23;;;;;;;22.92;100.00;98039.81;5095924;28;20655;-57
2023/06/15 06:04:37;;;;;;;12.25;9.05;;;;;;;23.01;99.81;98038.66;5096192;28;20207;-57
2023/06/15 06:07:07;;;;;;;18.55;9.43;;;;;;;23.14;99.15;98055.38;5095874;28;20167;-57
2023/06/15 06:09:33;;;;;;;14.50;8.95;;;;;;;23.12;98.27;98046.84;5095438;28;20206;-57
2023/06/15 06:12:02;;;;;;;16.92;9.77;;;;;;;23.24;96.98;98048.00;5095785;28;20255;-57
2023/06/15 06:14:28;;;;;;;10.75;8.40;;;;;;;23.26;96.69;98053.06;5052894;28;20266;-57
2023/06/15 06:16:54;;;;;;;14.70;9.02;;;;;;;23.22;95.74;98035.97;5053085;28;20189;-57
2023/06/15 06:19:20;;;;;;;14.30;8.02;;;;;;;23.18;95.00;98040.00;5052936;28;20189;-57
2023/06/15 06:21:45;;;;;;;11.55;8.45;;;;;;;22.94;97.35;98032.50;5052972;28;20173;-57
2023/06/15 06:24:11;;;;;;;12.77;7.53;;;;;;;22.77;98.95;98046.97;5052937;28;20316;-57
2023/06/15 06:26:36;;;;;;;14.55;8.27;;;;;;;22.91;98.90;98046.88;5052937;28;20182;-57
2023/06/15 06:29:03;;;;;;;14.27;8.93;;;;;;;22.71;100.00;98026.63;5052766;28;20213;-57
2023/06/15 06:31:28;;;;;;;19.70;9.48;;;;;;;22.70;100.00;98019.72;5052597;28;20200;-57
2023/06/15 06:33:53;;;;;;;13.48;8.57;;;;;;;23.02;100.00;98045.56;5052786;28;20185;-57
2023/06/15 06:36:19;;;;;;;10.20;8.00;;;;;;;23.17;95.62;98025.19;5052756;28;20184;-57
2023/06/15 06:38:44;;;;;;;12.45;8.27;;;;;;;23.36;94.62;98049.06;5052655;28;20196;-57
2023/06/15 06:41:10;;;;;;;11.80;8.10;;;;;;;23.37;94.06;98015.56;5052613;28;20181;-57
2023/06/15 06:43:35;;;;;;;17.55;9.30;;;;;;;23.51;94.37;98044.50;5052598;28;20577;-57
2023/06/15 06:46:01;;;;;;;11.95;8.38;;;;;;;23.27;95.25;98025.66;5083903;28;20560;-57
2023/06/15 06:48:27;;;;;;;15.27;8.40;;;;;;;23.17;97.13;98027.81;5095018;28;20614;-57
2023/06/15 06:50:52;;;;;;;12.65;8.75;;;;;;;22.98;97.06;98007.38;5094702;28;20176;-57
2023/06/15 06:53:17;;;;;;;12.23;7.85;;;;;;;23.07;96.11;98037.91;5095013;28;20186;-57
2023/06/15 06:55:44;;;;;;;13.77;8.52;;;;;;;23.17;97.04;98039.22;5094910;28;20199;-57
2023/06/15 06:58:11;;;;;;;10.85;7.80;;;;;;;23.26;96.63;98038.03;5093831;28;20211;-57
2023/06/15 07:00:36;;;;;;;12.77;8.95;;;;;;;23.31;95.14;98035.63;5094872;28;20720;-57
2023/06/15 07:03:02;;;;;;;10.20;7.50;;;;;;;23.37;94.51;98012.94;5094672;28;20267;-57
2023/06/15 07:05:27;;;;;;;10.18;6.70;;;;;;;23.49;90.43;98028.03;5094736;28;20189;-57
2023/06/15 07:07:52;;;;;;;10.95;6.20;;;;;;;23.66;89.02;98036.47;5094758;28;20207;-57
2023/06/15 07:10:18;;;;;;;8.70;6.85;;;;;;;23.63;89.45;98018.34;5094625;28;20188;-57
2023/06/15 07:12:43;;;;;;;10.60;7.18;;;;;;;23.59;90.64;98032.97;5071901;28;20185;-57
2023/06/15 07:15:09;;;;;;;12.57;7.22;;;;;;;23.75;91.76;98034.25;5072010;28;20193;-57
2023/06/15 07:17:35;;;;;;;11.70;7.88;;;;;;;23.78;91.16;98010.09;5012030;28;20206;-57
2023/06/15 07:20:00;;;;;;;9.68;7.50;;;;;;;24.04;89.78;98028.69;5012152;28;20194;-56
2023/06/15 07:22:26;;;;;;;9.75;7.35;;;;;;;24.29;87.37;98042.19;5012142;28;20190;-57
2023/06/15 07:24:51;;;;;;;13.00;8.15;;;;;;;24.43;87.05;98044.69;5012406;28;20538;-57
2023/06/15 07:27:18;;;;;;;10.60;7.30;;;;;;;24.44;85.88;98019.06;5012132;28;20185;-57
2023/06/15 07:29:44;;;;;;;8.02;7.22;;;;;;;24.62;85.52;98046.56;5011755;28;20206;-57
2023/06/15 07:32:09;;;;;;;10.93;7.30;;;;;;;24.68;85.84;98037.00;5012031;28;20229;-57
2023/06/15 07:34:35;;;;;;;8.15;7.28;;;;;;;24.65;85.86;98048.81;5011948;28;20182;-58
2023/06/15 07:37:00;;;;;;;10.32;7.63;;;;;;;24.72;86.25;98049.63;5011842;28;20190;-57
2023/06/15 07:39:26;;;;;;;12.82;7.97;;;;;;;24.73;85.58;98040.66;4992168;28;20292;-57
2023/06/15 07:41:51;;;;;;;12.35;7.55;;;;;;;24.72;83.56;98044.34;4992198;28;20187;-57
2023/06/15 07:44:16;;;;;;;8.98;6.90;;;;;;;24.73;84.57;98040.66;4992134;28;20194;-57
2023/06/15 07:46:42;;;;;;;8.95;6.30;;;;;;;24.68;84.25;98027.22;4992146;28;20211;-57
2023/06/15 07:49:08;;;;;;;6.97;5.63;;;;;;;24.65;80.27;98021.53;4993492;28;20218;-57
2023/06/15 07:51:35;;;;;;;5.53;4.97;;;;;;;24.50;79.71;98029.63;4991933;28;20287;-57
2023/06/15 07:54:00;;;;;;;9.18;5.20;;;;;;;24.65;80.29;98035.59;4995312;28;20199;-57
2023/06/15 07:56:26;;;;;;;6.55;5.32;;;;;;;24.61;80.86;98017.69;5031318;28;20189;-57
2023/06/15 07:58:52;;;;;;;7.55;6.00;;;;;;;24.83;81.29;98037.63;5031084;28;20622;-57
2023/06/15 08:01:17;;;;;;;7.20;5.93;;;;;;;25.08;82.34;98047.38;5031161;28;20620;-57
2023/06/15 08:03:43;;;;;;;10.50;7.13;;;;;;;25.27;80.87;98043.13;5031164;28;20676;-57
2023/06/15 08:06:10;;;;;;;10.75;6.22;;;;;;;25.20;80.93;98021.13;4991568;28;20665;-57
2023/06/15 08:08:36;;;;;;;8.35;7.50;;;;;;;25.45;81.51;98040.66;4991308;28;20689;-57
2023/06/15 08:11:01;;;;;;;8.60;7.80;;;;;;;25.38;80.53;98018.66;5006253;28;20185;-57
2023/06/15 08:13:27;;;;;;;7.72;6.97;;;;;;;25.47;81.00;98028.81;5011098;28;20226;-57
2023/06/15 08:15:52;;;;;;;9.13;6.38;;;;;;;25.41;81.34;98016.41;5011161;28;20277;-57
2023/06/15 08:18:18;;;;;;;7.05;5.97;;;;;;;25.47;80.82;98035.94;5011084;28;20237;-57
2023/06/15 08:20:43;;;;;;;7.18;6.50;;;;;;;25.24;81.39;98039.06;5011036;28;20191;-57
2023/06/15 08:23:09;;;;;;;6.72;6.00;;;;;;;25.31;82.31;98018.66;5011043;28;20692;-58
2023/06/15 08:25:34;;;;;;;9.40;6.88;;;;;;;25.43;79.98;98022.31;5010837;28;20661;-57
2023/06/15 08:28:03;;;;;;;6.70;5.53;;;;;;;25.41;79.71;98018.22;5010906;28;20201;-57
2023/06/15 08:30:28;;;;;;;7.55;5.78;;;;;;;25.30;80.92;98032.16;5025605;28;20217;-57
2023/06/15 08:32:53;;;;;;;9.20;5.30;;;;;;;25.12;80.76;98024.78;5030519;28;20198;-57
2023/06/15 08:35:19;;;;;;;6.78;5.70;;;;;;;25.30;81.19;98027.63;5030530;28;20622;-57
2023/06/15 08:37:45;;;;;;;5.75;5.25;;;;;;;25.39;81.80;98031.72;5045631;28;20193;-57
2023/06/15 08:40:11;;;;;;;8.63;6.38;;;;;;;25.43;82.78;98005.63;5050416;28;20634;-58
2023/06/15 08:42:37;;;;;;;6.00;5.40;;;;;;;25.77;80.07;98031.81;5050378;28;20184;-57
2023/06/15 08:45:06;;;;;;;5.78;4.95;;;;;;;25.92;79.47;98032.38;5030174;28;20193;-58
2023/06/15 08:47:35;;;;;;;5.97;5.32;;;;;;;25.86;79.03;98022.59;5030375;28;20216;-57
2023/06/15 08:50:04;;;;;;;7.20;6.03;;;;;;;25.88;80.35;98029.31;5030097;28;20509;-58
2023/06/15 08:52:34;;;;;;;5.55;4.95;;;;;;;25.84;79.68;98028.09;5030227;28;20185;-58
2023/06/15 08:55:01;;;;;;;8.02;5.28;;;;;;;25.93;80.20;98034.00;5030262;28;20282;-58
2023/06/15 08:57:27;;;;;;;6.95;4.75;;;;;;;26.10;79.95;98027.19;5064825;28;20192;-57
2023/06/15 08:59:53;;;;;;;5.57;5.10;;;;;;;26.28;78.86;98021.97;5069963;28;20654;-57
2023/06/15 09:02:20;;;;;;;5.45;4.95;;;;;;;26.43;78.34;98026.00;5029960;28;20181;-56
2023/06/15 09:04:49;;;;;;;7.55;5.35;;;;;;;26.53;78.41;98021.00;4990494;28;20681;-57
2023/06/15 09:07:14;;;;;;;5.72;5.22;;;;;;;26.69;77.38;98030.31;4990631;28;20195;-57
2023/06/15 09:10:08;;;;;;;7.07;5.07;;;;;;;26.84;76.42;98022.84;4990604;28;20285;-57
2023/06/15 09:12:33;;;;;;;6.15;5.13;;;;;;;26.97;76.44;98026.22;4990587;28;20314;-57
2023/06/15 09:14:59;;;;;;;6.68;4.97;;;;;;;26.86;75.95;97992.41;4990398;28;20187;-57
2023/06/15 09:17:28;;;;;;;5.75;5.25;;;;;;;26.87;76.57;98022.44;4990548;28;20194;-57
2023/06/15 09:19:53;;;;;;;5.85;5.30;;;;;;;26.82;77.25;98012.44;4989991;28;20234;-57
2023/06/15 09:22:19;;;;;;;7.03;5.13;;;;;;;26.85;77.37;98012.03;4990811;28;20192;-56
2023/06/15 09:24:45;;;;;;;6.88;5.05;;;;;;;26.98;76.89;98011.91;5009970;28;20245;-56
2023/06/15 09:27:15;;;;;;;5.78;5.20;;;;;;;27.05;75.96;97996.72;4990228;28;20238;-56
2023/06/15 09:30:01;;;;;;;6.32;5.63;;;;;;;27.04;76.59;98000.41;4990246;28;20321;-56
2023/06/15 09:32:28;;;;;;;6.40;4.95;;;;;;;27.01;76.35;98000.03;4990326;28;20277;-56
2023/06/15 09:34:58;;;;;;;7.78;5.80;;;;;;;27.01;75.07;97992.84;4993248;28;20195;-56
2023/06/15 09:37:25;;;;;;;8.48;5.07;;;;;;;26.94;75.90;97964.75;5009746;28;20190;-57
2023/06/15 09:39:52;;;;;;;7.95;5.72;;;;;;;27.04;75.92;97975.69;5010046;28;20196;-57
2023/06/15 09:42:18;;;;;;;6.35;4.80;;;;;;;27.18;76.04;97983.31;5009995;28;20186;-57
2023/06/15 09:44:43;;;;;;;8.10;5.40;;;;;;;27.14;75.95;97971.50;5009921;28;20186;-57
2023/06/15 09:47:17;;;;;;;5.57;4.90;;;;;;;27.31;75.06;97993.03;5029321;28;20186;-57
2023/06/15 09:49:46;;;;;;;7.10;5.38;;;;;;;27.25;75.24;97964.69;5029603;28;20210;-57
2023/06/15 09:52:12;;;;;;;8.63;5.75;;;;;;;27.45;74.80;97990.00;5029592;28;20248;-57
2023/06/15 09:54:39;;;;;;;6.32;5.10;;;;;;;27.43;74.88;97992.06;5030473;28;20213;-57
2023/06/15 09:57:04;;;;;;;5.90;5.25;;;;;;;27.32;75.18;97973.38;5050405;28;20186;-57
2023/06/15 09:59:30;;;;;;;8.23;5.13;;;;;;;27.20;75.72;97973.31;5069481;28;20181;-57
2023/06/15 10:01:56;;;;;;;5.80;5.18;;;;;;;27.17;76.88;97984.38;5069456;28;20554;-57
2023/06/15 10:04:27;;;;;;;9.85;5.68;;;;;;;27.09;78.18;97983.81;5069697;28;20188;-57
2023/06/15 10:06:57;;;;;;;7.38;5.38;;;;;;;26.94;80.83;97978.84;5069502;28;20338;-57
2023/06/15 10:09:29;;;;;;;6.03;5.00;;;;;;;26.79;81.52;97956.31;5089685;28;20204;-57
2023/06/15 10:12:02;;;;;;;11.93;5.13;;;;;;;26.79;81.34;97972.25;5091925;28;20227;-57
2023/06/15 10:15:20;;;;;;;7.07;5.28;;;;;;;26.72;81.38;97982.13;5091828;28;20309;-57
2023/06/15 10:17:49;;;;;;;7.97;5.13;;;;;;;26.52;81.68;97957.50;5049024;28;20655;-57
2023/06/15 10:20:16;;;;;;;6.15;5.55;;;;;;;26.45;81.24;97973.50;5049211;28;20672;-57
2023/06/15 10:22:57;;;;;;;8.27;5.70;;;;;;;26.38;83.83;97975.41;5049136;28;20267;-57
2023/06/15 10:25:27;;;;;;;5.53;5.03;;;;;;;26.14;86.20;97956.78;5049189;28;20220;-57
2023/06/15 10:27:54;;;;;;;8.55;6.35;;;;;;;26.15;89.31;97966.38;5049196;28;20181;-57
2023/06/15 10:30:31;;;;;;;6.35;5.68;;;;;;;26.04;92.48;97978.47;5049033;28;20219;-57
2023/06/15 10:33:12;;;;;;;7.65;5.82;;;;;;;25.85;92.24;97974.06;5052356;28;20189;-57
2023/06/15 10:35:48;;;;;;;5.28;4.88;;;;;;;25.81;92.10;97982.63;5052858;28;20234;-57
2023/06/15 10:38:45;;;;;;;7.00;5.65;;;;;;;25.65;96.07;97991.06;5052843;28;20222;-57
2023/06/15 10:41:10;;;;;;;8.18;5.85;;;;;;;25.54;99.99;97999.66;5052692;28;20276;-57
2023/06/15 10:43:36;;;;;;;7.32;6.30;;;;;;;25.08;100.00;97991.00;5052672;28;20674;-57
2023/06/15 10:46:02;;;;;;;6.65;5.95;;;;;;;24.97;100.00;97997.69;5052527;28;20285;-57
2023/06/15 10:48:30;;;;;;;7.22;6.60;;;;;;;24.87;100.00;98017.69;5052443;28;20596;-57
2023/06/15 10:51:04;;;;;;;8.13;6.93;;;;;;;24.42;100.00;97995.44;5052411;28;20266;-57
2023/06/15 10:53:36;;;;;;;8.05;7.22;;;;;;;24.26;100.00;98010.88;5082391;28;20183;-57
2023/06/15 10:56:11;;;;;;;10.40;7.65;;;;;;;24.08;100.00;98022.00;5094967;28;20172;-57
2023/06/15 10:59:07;;;;;;;8.60;7.22;;;;;;;23.95;100.00;98012.41;5095007;28;20638;-57
2023/06/15 11:01:33;;;;;;;12.50;7.97;;;;;;;23.80;100.00;98007.25;5094885;28;20225;-57
2023/06/15 11:04:01;;;;;;;10.25;8.13;;;;;;;23.55;100.00;97995.53;5095038;28;20172;-57
2023/06/15 11:06:32;;;;;;;9.73;7.82;;;;;;;23.41;100.00;97996.50;5094782;28;20225;-57
2023/06/15 11:09:02;;;;;;;9.05;7.70;;;;;;;23.08;100.00;97990.16;5094564;28;20228;-57
2023/06/15 11:11:33;;;;;;;9.05;8.15;;;;;;;23.12;100.00;97998.50;5094642;28;20225;-57
2023/06/15 11:14:04;;;;;;;12.32;8.32;;;;;;;23.39;100.00;98010.91;5094674;28;20168;-57
2023/06/15 11:16:37;;;;;;;9.60;8.60;;;;;;;23.46;100.00;98007.28;5094689;28;20180;-56
2023/06/15 11:19:12;;;;;;;9.00;8.07;;;;;;;23.52;100.00;98010.97;5094278;28;20164;-57
2023/06/15 11:21:41;;;;;;;9.30;8.40;;;;;;;23.56;100.00;97985.81;5094478;28;20175;-57
2023/06/15 11:24:08;;;;;;;9.75;8.85;;;;;;;23.81;100.00;98001.75;5094765;28;20176;-57
2023/06/15 11:26:38;;;;;;;11.27;9.23;;;;;;;23.92;100.00;97991.66;5094112;28;20176;-57